createdAt,value
2018-12-13T07:24:29.675Z,31.83
2018-12-13T07:26:57.901Z,30.10
2018-12-13T07:29:26.113Z,32.33
2018-12-13T07:31:54.407Z,30.07
2018-12-13T07:34:22.639Z,31.60
2018-12-13T07:36:50.997Z,30.47
2018-12-13T07:39:20.063Z,30.20
2018-12-13T07:41:48.279Z,32.23
2018-12-13T07:44:16.506Z,31.47
2018-12-13T07:46:44.724Z,33.97
2018-12-13T07:49:12.954Z,33.80
2018-12-13T07:51:41.161Z,33.03
2018-12-13T07:54:09.386Z,34.00
2018-12-13T07:56:37.683Z,34.60
2018-12-13T07:59:05.909Z,31.93
2018-12-13T08:01:34.121Z,33.50
2018-12-13T08:04:02.357Z,33.80
2018-12-13T08:06:30.591Z,33.13
2018-12-13T08:08:58.823Z,32.97
2018-12-13T08:11:27.051Z,32.77
2018-12-13T08:13:55.296Z,29.83
2018-12-13T08:16:23.513Z,32.50
2018-12-13T08:18:51.758Z,30.50
2018-12-13T08:21:20.045Z,31.07
2018-12-13T08:23:48.290Z,30.00
2018-12-13T08:26:16.503Z,28.87
2018-12-13T08:28:44.739Z,28.20
2018-12-13T08:31:12.971Z,28.97
2018-12-13T08:33:41.215Z,28.67
2018-12-13T08:36:09.448Z,29.23
2018-12-13T08:38:37.705Z,27.93
2018-12-13T08:41:06.007Z,28.30
2018-12-13T08:43:34.274Z,29.90
2018-12-13T08:46:02.495Z,32.07
2018-12-13T08:48:30.752Z,33.23
2018-12-13T08:50:58.987Z,30.63
2018-12-13T08:53:27.235Z,32.43
2018-12-13T08:55:55.553Z,30.67
2018-12-13T08:58:23.854Z,28.43
2018-12-13T09:00:52.180Z,28.63
2018-12-13T09:03:20.408Z,28.37
2018-12-13T09:05:48.647Z,29.00
2018-12-13T09:08:16.888Z,27.30
2018-12-13T09:10:45.135Z,30.37
2018-12-13T09:13:13.350Z,28.70
2018-12-13T09:15:41.589Z,28.33
2018-12-13T09:18:09.797Z,27.33
2018-12-13T09:20:38.038Z,27.30
2018-12-13T09:23:06.245Z,26.73
2018-12-13T09:25:34.494Z,27.77
2018-12-13T09:28:02.709Z,28.97
2018-12-13T09:30:30.955Z,26.13
2018-12-13T09:32:59.171Z,26.93
2018-12-13T09:35:27.413Z,27.80
2018-12-13T09:37:55.650Z,28.27
2018-12-13T09:40:24.028Z,26.73
2018-12-13T09:42:52.374Z,25.77
2018-12-13T09:45:20.615Z,25.93
2018-12-13T09:47:48.905Z,27.60
2018-12-13T09:50:17.161Z,28.07
2018-12-13T09:52:45.383Z,30.17
2018-12-13T09:55:13.699Z,26.27
2018-12-13T09:57:42.007Z,26.70
2018-12-13T10:00:10.920Z,27.93
2018-12-13T10:02:39.134Z,28.70
2018-12-13T10:05:07.517Z,26.87
2018-12-13T10:07:35.783Z,26.27
2018-12-13T10:10:04.404Z,24.67
2018-12-13T10:12:32.731Z,26.20
2018-12-13T10:15:00.963Z,25.60
2018-12-13T10:17:29.194Z,25.43
2018-12-13T10:19:57.423Z,26.87
2018-12-13T10:22:25.746Z,28.03
2018-12-13T10:24:53.971Z,32.40
2018-12-13T10:27:22.298Z,33.00
2018-12-13T10:29:50.612Z,30.77
2018-12-13T10:32:18.858Z,29.90
2018-12-13T10:34:47.106Z,24.43
2018-12-13T10:37:15.344Z,26.43
2018-12-13T10:39:43.572Z,24.77
2018-12-13T10:42:11.898Z,24.20
2018-12-13T10:44:42.337Z,25.90
2018-12-13T10:47:10.579Z,24.50
2018-12-13T10:49:38.808Z,24.60
2018-12-13T10:52:07.043Z,23.40
2018-12-13T10:54:35.350Z,26.90
2018-12-13T10:57:03.671Z,29.13
2018-12-13T10:59:31.881Z,32.27
2018-12-13T11:02:02.643Z,26.97
2018-12-13T11:04:30.859Z,27.23
2018-12-13T11:06:59.179Z,25.50
2018-12-13T11:09:27.486Z,25.33
2018-12-13T11:11:55.710Z,24.53
2018-12-13T11:14:23.949Z,22.47
2018-12-13T11:16:52.174Z,23.93
2018-12-13T11:19:20.407Z,21.57
2018-12-13T11:21:48.618Z,22.07
2018-12-13T11:24:16.855Z,22.30
2018-12-13T11:26:45.151Z,23.80
2018-12-13T11:29:28.412Z,20.73
2018-12-13T11:31:56.722Z,23.73
2018-12-13T11:34:24.958Z,20.63
2018-12-13T11:36:53.175Z,22.20
2018-12-13T11:39:21.419Z,22.50
2018-12-13T11:41:49.629Z,21.93
2018-12-13T11:44:17.868Z,21.43
2018-12-13T11:46:46.095Z,21.80
2018-12-13T11:49:14.419Z,21.07
2018-12-13T11:51:42.640Z,21.73
2018-12-13T11:54:22.451Z,22.47
2018-12-13T11:56:50.751Z,22.60
2018-12-13T11:59:18.993Z,21.10
2018-12-13T12:01:47.218Z,21.77
2018-12-13T12:04:15.476Z,22.27
2018-12-13T12:06:43.718Z,21.40
2018-12-13T12:09:12.425Z,22.60
2018-12-13T12:11:40.797Z,22.00
2018-12-13T12:14:09.042Z,21.23
2018-12-13T12:16:37.273Z,20.93
2018-12-13T12:19:05.667Z,22.13
2018-12-13T12:21:33.886Z,21.07
2018-12-13T12:24:02.206Z,22.73
2018-12-13T12:26:30.442Z,21.03
2018-12-13T12:28:58.709Z,21.03
2018-12-13T12:31:26.940Z,22.53
2018-12-13T12:33:55.244Z,23.13
2018-12-13T12:36:23.492Z,21.30
2018-12-13T12:38:51.801Z,22.43
2018-12-13T12:41:20.045Z,22.37
2018-12-13T12:43:48.257Z,22.57
2018-12-13T12:46:22.932Z,24.03
2018-12-13T12:48:51.266Z,23.17
2018-12-13T12:51:19.516Z,22.53
2018-12-13T12:53:47.727Z,21.93
2018-12-13T12:56:15.970Z,22.17
2018-12-13T12:58:44.222Z,23.73
2018-12-13T13:01:12.491Z,20.53
2018-12-13T13:03:40.718Z,23.20
2018-12-13T13:06:08.954Z,23.67
2018-12-13T13:08:37.193Z,22.37
2018-12-13T13:11:05.559Z,22.10
2018-12-13T13:13:33.772Z,21.87
2018-12-13T13:16:02.000Z,24.43
2018-12-13T13:18:30.221Z,21.93
2018-12-13T13:20:58.459Z,22.83
2018-12-13T13:23:26.859Z,22.33
2018-12-13T13:25:55.095Z,24.03
2018-12-13T13:28:23.298Z,23.00
2018-12-13T13:30:51.527Z,24.67
2018-12-13T13:33:19.743Z,22.90
2018-12-13T13:35:47.975Z,21.87
2018-12-13T13:38:16.246Z,23.80
2018-12-13T13:40:44.558Z,21.87
2018-12-13T13:43:12.807Z,23.97
2018-12-13T13:45:41.133Z,21.10
2018-12-13T13:48:09.338Z,24.37
2018-12-13T13:50:37.583Z,17.43
2018-12-13T13:53:05.809Z,17.40
2018-12-13T13:55:34.050Z,21.57
2018-12-13T13:58:02.271Z,17.50
2018-12-13T14:00:30.661Z,21.83
2018-12-13T14:02:58.886Z,20.93
2018-12-13T14:05:27.108Z,18.23
2018-12-13T14:07:55.362Z,23.13
2018-12-13T14:10:23.574Z,22.30
2018-12-13T14:12:51.815Z,17.43
2018-12-13T14:15:20.027Z,22.60
2018-12-13T14:17:48.268Z,21.23
2018-12-13T14:20:16.486Z,19.47
2018-12-13T14:22:45.096Z,16.50
2018-12-13T14:25:13.412Z,14.33
2018-12-13T14:27:41.655Z,12.20
2018-12-13T14:30:10.164Z,13.10
2018-12-13T14:32:38.399Z,11.40
2018-12-13T14:35:06.826Z,12.50
2018-12-13T14:37:35.066Z,12.30
2018-12-13T14:40:03.375Z,11.63
2018-12-13T14:42:31.617Z,12.63
2018-12-13T14:44:59.843Z,12.07
2018-12-13T14:47:28.090Z,13.90
2018-12-13T14:49:56.311Z,15.77
2018-12-13T14:52:24.558Z,13.40
2018-12-13T14:54:52.863Z,13.80
2018-12-13T14:57:21.094Z,12.33
2018-12-13T14:59:49.378Z,12.57
2018-12-13T15:02:17.626Z,11.23
2018-12-13T15:04:45.846Z,12.07
2018-12-13T15:07:14.074Z,12.27
2018-12-13T15:09:42.307Z,13.57
2018-12-13T15:12:10.607Z,11.70
2018-12-13T15:14:38.834Z,12.57
2018-12-13T15:17:07.047Z,11.73
2018-12-13T15:19:35.281Z,12.33
2018-12-13T15:22:03.581Z,11.83
2018-12-13T15:24:31.811Z,10.97
2018-12-13T15:27:00.111Z,12.93
2018-12-13T15:29:28.352Z,11.60
2018-12-13T15:31:59.586Z,11.33
2018-12-13T15:34:26.834Z,11.60
2018-12-13T15:36:55.127Z,11.97
2018-12-13T15:39:23.363Z,11.37
2018-12-13T15:41:51.601Z,12.70
2018-12-13T15:44:19.843Z,13.83
2018-12-13T15:46:48.140Z,13.60
2018-12-13T15:49:16.379Z,13.37
2018-12-13T15:51:44.604Z,10.77
2018-12-13T15:54:12.826Z,11.23
2018-12-13T15:56:41.054Z,12.90
2018-12-13T15:59:09.298Z,11.90
2018-12-13T16:01:37.590Z,12.70
2018-12-13T16:04:05.819Z,12.03
2018-12-13T16:06:34.049Z,12.07
2018-12-13T16:09:02.275Z,12.47
2018-12-13T16:11:30.535Z,13.00
2018-12-13T16:13:58.759Z,12.77
2018-12-13T16:16:26.995Z,13.80
2018-12-13T16:18:55.232Z,13.87
2018-12-13T16:21:23.542Z,13.93
2018-12-13T16:23:51.841Z,14.00
2018-12-13T16:26:20.079Z,12.17
2018-12-13T16:28:48.311Z,13.03
2018-12-13T16:31:16.702Z,13.40
2018-12-13T16:33:44.927Z,17.60
2018-12-13T16:36:13.247Z,18.33
2018-12-13T16:38:41.470Z,20.23
2018-12-13T16:41:09.697Z,19.73
2018-12-13T16:43:37.919Z,19.77
2018-12-13T16:46:06.172Z,18.17
2018-12-13T16:48:34.524Z,18.07
2018-12-13T16:51:02.860Z,17.27
2018-12-13T16:53:31.088Z,15.57
2018-12-13T16:55:59.322Z,16.13
2018-12-13T16:58:27.619Z,17.90
2018-12-13T17:00:55.851Z,18.73
2018-12-13T17:03:35.559Z,16.40
2018-12-13T17:06:03.888Z,19.00
2018-12-13T17:08:32.139Z,19.13
2018-12-13T17:11:00.534Z,21.43
2018-12-13T17:13:28.919Z,19.97
2018-12-13T17:15:57.160Z,19.47
2018-12-13T17:18:25.471Z,18.47
2018-12-13T17:20:53.711Z,17.17
2018-12-13T17:23:22.024Z,16.57
2018-12-13T17:25:50.398Z,16.33
2018-12-13T17:28:18.699Z,14.93
2018-12-13T17:30:46.924Z,15.57
2018-12-13T17:33:15.243Z,17.27
2018-12-13T17:35:43.465Z,17.03
2018-12-13T17:38:11.795Z,18.63
2018-12-13T17:40:40.011Z,17.80
2018-12-13T17:43:08.308Z,19.93
2018-12-13T17:45:36.631Z,19.37
2018-12-13T17:48:05.039Z,19.53
2018-12-13T17:50:33.354Z,20.63
2018-12-13T17:53:02.615Z,18.33
2018-12-13T17:55:30.847Z,19.80
2018-12-13T17:57:59.165Z,19.37
2018-12-13T18:00:27.466Z,19.43
2018-12-13T18:02:55.710Z,20.52
2018-12-13T18:05:23.947Z,21.40
2018-12-13T18:07:52.215Z,22.50
2018-12-13T18:10:20.451Z,21.47
2018-12-13T18:12:48.774Z,20.73
2018-12-13T18:15:16.988Z,20.97
2018-12-13T18:17:45.243Z,21.40
2018-12-13T18:20:13.503Z,19.30
2018-12-13T18:22:41.759Z,21.73
2018-12-13T18:25:10.064Z,21.63
2018-12-13T18:27:38.353Z,20.47
2018-12-13T18:30:08.641Z,20.07
2018-12-13T18:32:37.035Z,20.33
2018-12-13T18:35:06.205Z,21.40
2018-12-13T18:37:34.423Z,20.30
2018-12-13T18:40:02.894Z,18.93
2018-12-13T18:42:31.246Z,18.77
2018-12-13T18:44:59.611Z,18.20
2018-12-13T18:47:27.826Z,19.63
2018-12-13T18:49:56.079Z,19.87
2018-12-13T18:52:24.298Z,20.10
2018-12-13T18:54:52.617Z,19.33
2018-12-13T18:57:21.020Z,20.73
2018-12-13T18:59:49.274Z,21.27
2018-12-13T19:02:17.577Z,21.83
2018-12-13T19:04:45.962Z,21.27
2018-12-13T19:07:14.214Z,21.43
2018-12-13T19:09:42.454Z,19.77
2018-12-13T19:13:15.034Z,20.90
2018-12-13T19:15:43.372Z,18.60
2018-12-13T19:18:11.607Z,19.10
2018-12-13T19:20:39.847Z,20.90
2018-12-13T19:23:08.084Z,19.10
2018-12-13T19:25:36.323Z,17.93
2018-12-13T19:28:04.699Z,18.43
2018-12-13T19:30:32.934Z,19.13
2018-12-13T19:33:01.164Z,19.87
2018-12-13T19:35:29.408Z,18.87
2018-12-13T19:37:58.276Z,17.07
2018-12-13T19:40:26.551Z,19.80
2018-12-13T19:42:54.768Z,19.87
2018-12-13T19:45:23.015Z,19.07
2018-12-13T19:47:51.260Z,17.70
2018-12-13T19:50:19.507Z,18.80
2018-12-13T19:52:47.713Z,21.27
2018-12-13T19:55:15.958Z,19.23
2018-12-13T19:57:44.185Z,19.10
2018-12-13T20:00:12.589Z,19.73
2018-12-13T20:02:40.806Z,18.30
2018-12-13T20:05:09.128Z,18.53
2018-12-13T20:07:37.375Z,18.87
2018-12-13T20:10:06.728Z,18.17
2018-12-13T20:12:34.960Z,18.70
2018-12-13T20:15:03.343Z,18.97
2018-12-13T20:17:31.585Z,19.50
2018-12-13T20:19:59.806Z,19.17
2018-12-13T20:22:28.065Z,18.97
2018-12-13T20:24:56.280Z,20.97
2018-12-13T20:27:24.520Z,19.37
2018-12-13T20:29:52.862Z,20.50
2018-12-13T20:32:21.683Z,19.97
2018-12-13T20:34:50.263Z,18.97
2018-12-13T20:37:18.579Z,18.63
2018-12-13T20:39:46.805Z,19.23
2018-12-13T20:42:15.038Z,19.70
2018-12-13T20:44:43.368Z,19.37
2018-12-13T20:47:11.597Z,21.40
2018-12-13T20:49:39.936Z,20.30
2018-12-13T20:52:08.184Z,23.17
2018-12-13T20:54:36.514Z,22.47
2018-12-13T20:57:04.933Z,23.43
2018-12-13T20:59:33.167Z,21.80
2018-12-13T21:02:01.406Z,25.17
2018-12-13T21:04:29.643Z,24.87
2018-12-13T21:07:03.475Z,24.70
2018-12-13T21:09:31.770Z,21.30
2018-12-13T21:12:00.011Z,20.60
2018-12-13T21:14:28.349Z,21.20
2018-12-13T21:16:59.975Z,21.93
2018-12-13T21:19:26.852Z,21.80
2018-12-13T21:21:55.097Z,23.00
2018-12-13T21:24:23.435Z,21.57
2018-12-13T21:26:51.680Z,20.63
2018-12-13T21:29:19.889Z,20.63
2018-12-13T21:31:48.187Z,21.10
2018-12-13T21:34:16.407Z,22.10
